createdAt,value
2022-07-28T03:49:08.053Z,23.58
2022-07-28T03:52:10.570Z,23.58
2022-07-28T03:55:14.095Z,23.11
2022-07-28T03:58:28.420Z,23.21
2022-07-28T04:01:31.030Z,23.34
2022-07-28T04:04:33.538Z,23.34
2022-07-28T04:07:35.611Z,23.35
2022-07-28T04:10:37.955Z,23.51
2022-07-28T04:13:40.207Z,23.47
2022-07-28T04:16:42.654Z,23.50
2022-07-28T04:19:44.785Z,23.64
2022-07-28T04:22:48.516Z,23.69
2022-07-28T04:25:50.663Z,23.66
2022-07-28T04:28:52.982Z,23.74
2022-07-28T04:31:55.045Z,23.84
2022-07-28T04:34:59.063Z,23.92
2022-07-28T04:38:01.494Z,23.72
2022-07-28T04:41:04.496Z,23.78
2022-07-28T04:44:06.589Z,23.92
2022-07-28T04:47:09.331Z,23.99
2022-07-28T04:50:15.116Z,23.97
2022-07-28T04:53:18.560Z,23.94
2022-07-28T04:56:20.863Z,23.71
2022-07-28T04:59:23.234Z,23.72
2022-07-28T05:02:27.377Z,23.79
2022-07-28T05:05:29.797Z,23.90
2022-07-28T05:08:31.921Z,23.83
2022-07-28T05:11:34.282Z,23.86
2022-07-28T05:14:36.426Z,23.91
2022-07-28T05:17:38.805Z,24.00
2022-07-28T05:20:40.874Z,24.12
2022-07-28T05:23:47.350Z,24.29
2022-07-28T05:26:49.730Z,24.26
2022-07-28T05:29:52.062Z,24.34
2022-07-28T05:32:54.136Z,24.47
2022-07-28T05:35:59.792Z,24.45
2022-07-28T05:39:01.956Z,24.51
2022-07-28T05:42:04.449Z,24.56
2022-07-28T05:45:15.706Z,24.74
2022-07-28T05:48:22.445Z,24.78
2022-07-28T05:51:24.578Z,24.68
2022-07-28T05:54:26.952Z,24.75
2022-07-28T05:57:29.058Z,24.82
2022-07-28T06:00:34.694Z,24.96
2022-07-28T06:03:41.822Z,24.99
2022-07-28T06:06:44.505Z,25.02
2022-07-28T06:09:46.833Z,25.13
2022-07-28T06:12:52.765Z,25.18
2022-07-28T06:15:55.150Z,25.22
2022-07-28T06:18:57.264Z,25.26
2022-07-28T06:21:59.607Z,25.29
2022-07-28T06:25:01.667Z,25.36
2022-07-28T06:28:04.629Z,25.46
2022-07-28T06:31:06.756Z,25.40
2022-07-28T06:34:09.122Z,25.44
2022-07-28T06:37:11.191Z,25.46
2022-07-28T06:40:14.523Z,25.66
2022-07-28T06:43:16.600Z,25.70
2022-07-28T06:46:19.457Z,25.75
2022-07-28T06:49:21.856Z,25.84
2022-07-28T06:52:24.326Z,25.81
2022-07-28T06:55:28.496Z,25.77
2022-07-28T06:58:37.621Z,25.89
2022-07-28T07:01:39.693Z,26.12
2022-07-28T07:04:42.436Z,26.08
2022-07-28T07:07:44.643Z,26.01
2022-07-28T07:10:46.986Z,26.10
2022-07-28T07:13:49.259Z,26.23
2022-07-28T07:16:51.599Z,26.33
2022-07-28T07:19:53.708Z,26.31
2022-07-28T07:22:56.032Z,26.32
2022-07-28T07:25:58.743Z,26.17
2022-07-28T07:29:01.077Z,26.20
2022-07-28T07:32:08.344Z,26.28
2022-07-28T07:35:12.965Z,26.37
2022-07-28T07:38:15.095Z,26.31
2022-07-28T07:41:18.750Z,26.41
2022-07-28T07:44:20.959Z,26.52
2022-07-28T07:47:23.426Z,26.65
2022-07-28T07:50:25.494Z,26.63
2022-07-28T07:53:27.854Z,26.75
2022-07-28T07:56:29.934Z,26.74
2022-07-28T07:59:32.282Z,26.68
2022-07-28T08:02:34.433Z,26.58
2022-07-28T08:05:36.811Z,26.56
2022-07-28T08:08:43.831Z,26.53
2022-07-28T08:11:50.522Z,26.57
2022-07-28T08:14:53.611Z,26.58
2022-07-28T08:17:56.000Z,26.35
2022-07-28T08:20:58.062Z,26.23
2022-07-28T08:24:00.469Z,26.30
2022-07-28T08:27:03.471Z,26.34
2022-07-28T08:30:06.243Z,26.47
2022-07-28T08:33:08.331Z,26.53
2022-07-28T08:36:10.676Z,26.54
2022-07-28T08:39:12.772Z,26.62
2022-07-28T08:42:20.064Z,26.71
2022-07-28T08:45:24.603Z,26.78
2022-07-28T08:48:35.051Z,26.91
2022-07-28T08:51:39.240Z,26.91
2022-07-28T08:54:46.055Z,27.06
2022-07-28T08:57:49.420Z,27.10
2022-07-28T09:00:52.067Z,27.17
2022-07-28T09:03:54.868Z,27.19
2022-07-28T09:06:57.217Z,27.15
2022-07-28T09:10:02.499Z,27.21
2022-07-28T09:13:05.550Z,27.35
2022-07-28T09:16:07.759Z,27.40
2022-07-28T09:19:10.155Z,27.35
2022-07-28T09:22:13.270Z,27.41
2022-07-28T09:25:19.002Z,27.54
2022-07-28T09:28:21.098Z,27.60
2022-07-28T09:31:25.885Z,27.53
2022-07-28T09:34:28.406Z,27.61
2022-07-28T09:37:31.411Z,27.78
2022-07-28T09:40:33.500Z,27.76
2022-07-28T09:43:42.458Z,27.80
2022-07-28T09:46:44.771Z,27.93
2022-07-28T09:49:47.405Z,28.03
2022-07-28T09:52:49.535Z,28.06
2022-07-28T09:56:00.101Z,28.11
2022-07-28T09:59:03.631Z,28.13
2022-07-28T10:02:06.894Z,28.14
2022-07-28T10:05:11.675Z,28.21
2022-07-28T10:08:13.738Z,28.11
2022-07-28T10:11:18.411Z,28.12
2022-07-28T10:14:31.920Z,28.09
2022-07-28T10:17:34.382Z,28.19
2022-07-28T10:20:37.001Z,28.32
2022-07-28T10:23:39.960Z,28.45
2022-07-28T10:26:46.934Z,28.53
2022-07-28T10:29:56.739Z,28.49
2022-07-28T10:32:59.751Z,28.52
2022-07-28T10:36:05.298Z,28.63
2022-07-28T10:39:12.290Z,28.72
2022-07-28T10:42:15.500Z,28.74
2022-07-28T10:45:17.597Z,28.69
2022-07-28T10:48:21.629Z,28.74
2022-07-28T10:51:28.309Z,28.89
2022-07-28T10:54:38.582Z,28.87
2022-07-28T10:58:02.038Z,28.82
2022-07-28T11:01:48.629Z,28.78
2022-07-28T11:04:52.886Z,28.93
2022-07-28T11:07:57.154Z,29.01
2022-07-28T11:11:07.782Z,29.09
2022-07-28T11:14:30.757Z,29.15
2022-07-28T11:17:33.545Z,29.35
2022-07-28T11:21:08.636Z,29.43
2022-07-28T11:24:10.834Z,29.40
2022-07-28T11:27:15.399Z,29.31
2022-07-28T11:30:32.780Z,29.36
2022-07-28T11:33:54.461Z,29.41
2022-07-28T11:37:07.714Z,29.43
2022-07-28T11:40:39.586Z,29.44
2022-07-28T11:43:41.977Z,29.42
2022-07-28T11:46:44.609Z,29.53
2022-07-28T11:50:16.843Z,29.46
2022-07-28T11:53:19.922Z,29.44
2022-07-28T11:56:27.323Z,29.51
2022-07-28T11:59:41.390Z,29.50
2022-07-28T12:02:43.636Z,29.58
2022-07-28T12:05:56.987Z,29.61
2022-07-28T12:09:00.850Z,29.65
2022-07-28T12:12:03.842Z,29.59
2022-07-28T12:15:07.351Z,29.61
2022-07-28T12:18:11.351Z,29.65
2022-07-28T12:21:13.436Z,29.65
2022-07-28T12:24:25.950Z,29.60
2022-07-28T12:27:29.348Z,29.45
2022-07-28T12:30:34.330Z,29.38
2022-07-28T12:33:37.085Z,29.34
2022-07-28T12:36:39.434Z,29.35
2022-07-28T12:39:42.508Z,29.42
2022-07-28T12:42:46.733Z,29.42
2022-07-28T12:45:55.056Z,29.39
2022-07-28T12:48:59.041Z,29.45
2022-07-28T12:52:17.959Z,29.60
2022-07-28T12:55:32.968Z,29.66
2022-07-28T12:58:36.113Z,29.78
2022-07-28T13:01:50.616Z,29.77
2022-07-28T13:04:52.960Z,29.72
2022-07-28T13:08:03.667Z,29.67
2022-07-28T13:11:17.377Z,29.82
2022-07-28T13:14:44.356Z,29.87
2022-07-28T13:17:53.574Z,29.87
2022-07-28T13:20:55.917Z,29.78
2022-07-28T13:23:57.986Z,29.72
2022-07-28T13:27:01.922Z,29.85
2022-07-28T13:30:05.505Z,29.88
2022-07-28T13:33:13.414Z,29.98
2022-07-28T13:36:15.902Z,30.10
2022-07-28T13:39:18.352Z,30.13
2022-07-28T13:42:20.470Z,30.23
2022-07-28T13:45:29.978Z,30.26
2022-07-28T13:48:32.898Z,30.25
2022-07-28T13:51:36.617Z,30.29
2022-07-28T13:54:38.695Z,30.28
2022-07-28T13:57:43.128Z,30.15
2022-07-28T14:00:45.482Z,30.11
2022-07-28T14:03:55.740Z,30.06
2022-07-28T14:07:00.443Z,30.08
2022-07-28T14:10:02.814Z,30.02
2022-07-28T14:13:04.960Z,30.00
2022-07-28T14:16:14.134Z,29.89
2022-07-28T14:19:23.504Z,29.79
2022-07-28T14:22:39.699Z,29.80
2022-07-28T14:25:49.190Z,29.85
2022-07-28T14:28:52.038Z,29.95
2022-07-28T14:31:55.811Z,30.00
2022-07-28T14:34:58.329Z,29.98
2022-07-28T14:38:51.147Z,29.93
2022-07-28T14:41:23.572Z,29.91
2022-07-28T14:44:26.643Z,29.96
2022-07-28T14:47:44.267Z,30.05
2022-07-28T14:50:47.357Z,30.15
2022-07-28T14:53:52.172Z,30.21
2022-07-28T14:56:54.780Z,30.24
2022-07-28T14:59:57.121Z,30.39
